Аэропорт: Стригино. Нижний Новгород

ICAO: UWGG

METAR:
2019-09-21 16:00:00
UWGG 211600Z 00000MPS 9999 FEW033 03/01 Q1009 R36R/090070 NOSIG
METAR:
2019-09-21 13:56:00
TAF UWGG 211356Z 2115/2215 27003MPS 9999 BKN015 TX06/2210Z TN01/2203Z TEMPO 2115/2121 31005G10MPS -SHRA BKN012CB TEMPO 2203/2215 18006G14MPS 3500 -SHRA BKN011CB